sensor_id;sensor_type;location;lat;lon;timestamp;pressure;altitude;pressure_sealevel;temperature;humidity
20710;BME280;10516;51.518;9.864;2023-02-12T00:02:18;100760.84;;;5.08;96.68
20710;BME280;10516;51.518;9.864;2023-02-12T00:04:43;100761.19;;;5.13;96.19
20710;BME280;10516;51.518;9.864;2023-02-12T00:07:08;100762.16;;;5.12;96.41
20710;BME280;10516;51.518;9.864;2023-02-12T00:09:35;100768.28;;;5.04;96.02
20710;BME280;10516;51.518;9.864;2023-02-12T00:12:00;100768.44;;;5.03;95.93
20710;BME280;10516;51.518;9.864;2023-02-12T00:14:26;100771.75;;;5.05;96.00
20710;BME280;10516;51.518;9.864;2023-02-12T00:16:51;100774.06;;;5.24;96.28
20710;BME280;10516;51.518;9.864;2023-02-12T00:19:16;100774.25;;;5.14;96.07
20710;BME280;10516;51.518;9.864;2023-02-12T00:21:41;100767.94;;;5.23;95.13
20710;BME280;10516;51.518;9.864;2023-02-12T00:24:07;100773.25;;;5.15;96.26
20710;BME280;10516;51.518;9.864;2023-02-12T00:26:32;100771.75;;;5.13;95.56
20710;BME280;10516;51.518;9.864;2023-02-12T00:28:57;100771.59;;;5.06;96.53
20710;BME280;10516;51.518;9.864;2023-02-12T00:31:24;100772.75;;;5.12;96.02
20710;BME280;10516;51.518;9.864;2023-02-12T00:33:50;100771.75;;;5.13;95.10
20710;BME280;10516;51.518;9.864;2023-02-12T00:36:19;100767.78;;;5.09;96.04
20710;BME280;10516;51.518;9.864;2023-02-12T00:38:45;100772.91;;;5.02;96.41
20710;BME280;10516;51.518;9.864;2023-02-12T00:41:11;100772.41;;;5.07;97.44
20710;BME280;10516;51.518;9.864;2023-02-12T00:43:36;100775.88;;;5.07;96.47
20710;BME280;10516;51.518;9.864;2023-02-12T00:46:02;100783.66;;;5.01;97.92
20710;BME280;10516;51.518;9.864;2023-02-12T00:48:27;100789.97;;;5.00;98.77
20710;BME280;10516;51.518;9.864;2023-02-12T00:50:53;100798.56;;;5.10;97.74
20710;BME280;10516;51.518;9.864;2023-02-12T00:53:18;100796.56;;;5.12;96.07
20710;BME280;10516;51.518;9.864;2023-02-12T00:55:43;100792.75;;;4.98;97.59
20710;BME280;10516;51.518;9.864;2023-02-12T00:58:09;100789.63;;;5.11;96.99
20710;BME280;10516;51.518;9.864;2023-02-12T01:00:34;100790.25;;;5.29;94.33
20710;BME280;10516;51.518;9.864;2023-02-12T01:02:59;100789.78;;;5.25;94.61
20710;BME280;10516;51.518;9.864;2023-02-12T01:05:25;100790.59;;;5.18;95.44
20710;BME280;10516;51.518;9.864;2023-02-12T01:07:51;100794.25;;;5.25;94.29
20710;BME280;10516;51.518;9.864;2023-02-12T01:10:16;100795.56;;;5.29;93.99
20710;BME280;10516;51.518;9.864;2023-02-12T01:12:41;100787.94;;;5.18;94.79
20710;BME280;10516;51.518;9.864;2023-02-12T01:15:07;100795.91;;;5.18;95.22
20710;BME280;10516;51.518;9.864;2023-02-12T01:17:34;100789.47;;;5.04;95.93
20710;BME280;10516;51.518;9.864;2023-02-12T01:19:59;100799.22;;;5.04;97.05
20710;BME280;10516;51.518;9.864;2023-02-12T01:22:25;100798.22;;;5.05;97.23
20710;BME280;10516;51.518;9.864;2023-02-12T01:24:50;100794.22;;;5.09;96.69
20710;BME280;10516;51.518;9.864;2023-02-12T01:27:15;100795.91;;;5.18;95.43
20710;BME280;10516;51.518;9.864;2023-02-12T01:29:40;100794.56;;;5.14;96.45
20710;BME280;10516;51.518;9.864;2023-02-12T01:32:09;100795.56;;;5.21;96.04
20710;BME280;10516;51.518;9.864;2023-02-12T01:34:34;100795.41;;;5.22;95.02
20710;BME280;10516;51.518;9.864;2023-02-12T01:36:59;100798.53;;;5.18;95.10
20710;BME280;10516;51.518;9.864;2023-02-12T01:39:24;100796.22;;;5.31;93.20
20710;BME280;10516;51.518;9.864;2023-02-12T01:41:50;100796.91;;;5.17;95.37
20710;BME280;10516;51.518;9.864;2023-02-12T01:44:16;100792.59;;;5.16;96.36
20710;BME280;10516;51.518;9.864;2023-02-12T01:46:43;100791.41;;;5.26;94.22
20710;BME280;10516;51.518;9.864;2023-02-12T01:49:13;100783.84;;;5.15;95.60
20710;BME280;10516;51.518;9.864;2023-02-12T01:51:40;100790.41;;;5.36;93.47
20710;BME280;10516;51.518;9.864;2023-02-12T01:54:06;100793.91;;;5.28;93.36
20710;BME280;10516;51.518;9.864;2023-02-12T01:56:33;100790.75;;;5.24;94.38
20710;BME280;10516;51.518;9.864;2023-02-12T01:58:58;100792.59;;;5.32;94.08
20710;BME280;10516;51.518;9.864;2023-02-12T02:01:24;100793.25;;;5.26;94.18
20710;BME280;10516;51.518;9.864;2023-02-12T02:03:51;100789.75;;;5.33;93.06
20710;BME280;10516;51.518;9.864;2023-02-12T02:06:28;100797.22;;;5.30;94.40
20710;BME280;10516;51.518;9.864;2023-02-12T02:08:55;100797.75;;;5.17;95.38
20710;BME280;10516;51.518;9.864;2023-02-12T02:11:21;100791.94;;;5.06;98.07
20710;BME280;10516;51.518;9.864;2023-02-12T02:14:04;100799.72;;;5.23;94.26
20710;BME280;10516;51.518;9.864;2023-02-12T02:16:58;100799.22;;;5.12;97.63
20710;BME280;10516;51.518;9.864;2023-02-12T02:32:30;100792.09;;;5.20;94.42
20710;BME280;10516;51.518;9.864;2023-02-12T02:37:26;100784.31;;;5.19;95.30
20710;BME280;10516;51.518;9.864;2023-02-12T02:39:59;100792.59;;;5.24;94.86
20710;BME280;10516;51.518;9.864;2023-02-12T02:44:58;100789.78;;;5.17;95.68
20710;BME280;10516;51.518;9.864;2023-02-12T02:47:26;100788.47;;;4.97;98.85
20710;BME280;10516;51.518;9.864;2023-02-12T02:49:56;100787.94;;;5.18;95.23
20710;BME280;10516;51.518;9.864;2023-02-12T02:55:16;100786.63;;;5.14;96.11
20710;BME280;10516;51.518;9.864;2023-02-12T02:57:46;100785.50;;;5.08;97.35
20710;BME280;10516;51.518;9.864;2023-02-12T03:02:39;100790.41;;;5.36;93.35
20710;BME280;10516;51.518;9.864;2023-02-12T03:05:12;100784.66;;;5.00;97.64
20710;BME280;10516;51.518;9.864;2023-02-12T03:07:44;100787.13;;;5.25;94.38
20710;BME280;10516;51.518;9.864;2023-02-12T03:10:26;100788.63;;;5.12;97.72
20710;BME280;10516;51.518;9.864;2023-02-12T03:13:03;100792.94;;;5.21;95.69
20710;BME280;10516;51.518;9.864;2023-02-12T03:15:44;100790.78;;;5.08;97.24
20710;BME280;10516;51.518;9.864;2023-02-12T03:18:12;100792.59;;;5.08;99.07
20710;BME280;10516;51.518;9.864;2023-02-12T03:20:42;100800.06;;;5.28;96.00
20710;BME280;10516;51.518;9.864;2023-02-12T03:23:21;100786.44;;;5.40;93.16
20710;BME280;10516;51.518;9.864;2023-02-12T03:25:49;100786.97;;;5.35;93.07
20710;BME280;10516;51.518;9.864;2023-02-12T03:28:19;100792.59;;;5.32;94.28
20710;BME280;10516;51.518;9.864;2023-02-12T03:30:55;100795.25;;;5.32;95.55
20710;BME280;10516;51.518;9.864;2023-02-12T03:36:00;100794.19;;;5.57;91.75
20710;BME280;10516;51.518;9.864;2023-02-12T03:38:35;100797.03;;;5.40;93.65
20710;BME280;10516;51.518;9.864;2023-02-12T03:41:03;100800.22;;;5.19;97.23
20710;BME280;10516;51.518;9.864;2023-02-12T03:43:31;100795.06;;;5.25;96.93
20710;BME280;10516;51.518;9.864;2023-02-12T03:48:46;100794.91;;;5.43;92.64
20710;BME280;10516;51.518;9.864;2023-02-12T03:53:44;100797.06;;;5.31;93.75
20710;BME280;10516;51.518;9.864;2023-02-12T03:56:58;100804.31;;;5.38;93.03
20710;BME280;10516;51.518;9.864;2023-02-12T03:58:56;100799.69;;;5.31;93.56
20710;BME280;10516;51.518;9.864;2023-02-12T04:01:21;100801.19;;;5.34;93.64
20710;BME280;10516;51.518;9.864;2023-02-12T04:03:47;100809.97;;;5.10;96.81
20710;BME280;10516;51.518;9.864;2023-02-12T04:06:46;100808.97;;;5.19;97.16
20710;BME280;10516;51.518;9.864;2023-02-12T04:09:05;100807.31;;;5.35;93.92
20710;BME280;10516;51.518;9.864;2023-02-12T04:16:28;100817.06;;;5.10;95.99
20710;BME280;10516;51.518;9.864;2023-02-12T04:18:56;100820.41;;;5.28;94.53
20710;BME280;10516;51.518;9.864;2023-02-12T04:24:08;100821.06;;;5.22;96.28
20710;BME280;10516;51.518;9.864;2023-02-12T04:26:48;100821.88;;;5.22;95.08
20710;BME280;10516;51.518;9.864;2023-02-12T04:29:30;100826.34;;;5.22;94.10
20710;BME280;10516;51.518;9.864;2023-02-12T04:32:01;100839.25;;;5.17;95.35
20710;BME280;10516;51.518;9.864;2023-02-12T04:34:38;100833.47;;;5.21;96.01
20710;BME280;10516;51.518;9.864;2023-02-12T04:37:05;100835.78;;;5.32;93.17
20710;BME280;10516;51.518;9.864;2023-02-12T04:39:33;100834.47;;;5.37;92.61
20710;BME280;10516;51.518;9.864;2023-02-12T04:42:00;100835.78;;;5.32;93.06
20710;BME280;10516;51.518;9.864;2023-02-12T04:44:26;100838.75;;;5.21;94.61
20710;BME280;10516;51.518;9.864;2023-02-12T04:46:52;100846.50;;;5.07;97.37
20710;BME280;10516;51.518;9.864;2023-02-12T04:49:18;100846.69;;;5.21;95.48
20710;BME280;10516;51.518;9.864;2023-02-12T04:51:44;100832.63;;;5.21;93.86
20710;BME280;10516;51.518;9.864;2023-02-12T04:54:10;100835.13;;;5.39;92.37
20710;BME280;10516;51.518;9.864;2023-02-12T04:56:35;100840.91;;;5.26;94.41
20710;BME280;10516;51.518;9.864;2023-02-12T04:59:01;100838.09;;;5.44;92.17
20710;BME280;10516;51.518;9.864;2023-02-12T05:01:26;100834.09;;;5.40;91.69
20710;BME280;10516;51.518;9.864;2023-02-12T05:03:51;100839.56;;;5.46;92.20
20710;BME280;10516;51.518;9.864;2023-02-12T05:06:17;100847.00;;;5.26;94.15
20710;BME280;10516;51.518;9.864;2023-02-12T05:08:42;100841.38;;;5.38;92.68
20710;BME280;10516;51.518;9.864;2023-02-12T05:11:09;100847.84;;;5.19;94.99
20710;BME280;10516;51.518;9.864;2023-02-12T05:13:34;100839.22;;;5.33;93.24
20710;BME280;10516;51.518;9.864;2023-02-12T05:16:04;100846.03;;;5.44;91.78
20710;BME280;10516;51.518;9.864;2023-02-12T05:18:30;100842.72;;;5.25;94.28
20710;BME280;10516;51.518;9.864;2023-02-12T05:20:56;100837.59;;;5.32;93.62
20710;BME280;10516;51.518;9.864;2023-02-12T05:23:21;100847.88;;;5.35;92.86
20710;BME280;10516;51.518;9.864;2023-02-12T05:25:47;100852.81;;;5.14;95.50
20710;BME280;10516;51.518;9.864;2023-02-12T05:28:12;100845.19;;;5.27;95.90
20710;BME280;10516;51.518;9.864;2023-02-12T05:30:37;100850.00;;;5.31;94.28
20710;BME280;10516;51.518;9.864;2023-02-12T05:33:02;100847.34;;;5.40;92.67
20710;BME280;10516;51.518;9.864;2023-02-12T05:35:27;100841.91;;;5.41;91.52
20710;BME280;10516;51.518;9.864;2023-02-12T05:37:53;100840.91;;;5.50;91.04
20710;BME280;10516;51.518;9.864;2023-02-12T05:40:18;100845.53;;;5.56;90.83
20710;BME280;10516;51.518;9.864;2023-02-12T05:42:43;100847.19;;;5.41;91.92
20710;BME280;10516;51.518;9.864;2023-02-12T05:45:08;100847.84;;;5.43;92.06
20710;BME280;10516;51.518;9.864;2023-02-12T05:47:34;100843.06;;;5.55;91.36
20710;BME280;10516;51.518;9.864;2023-02-12T05:49:59;100845.00;;;5.53;90.76
20710;BME280;10516;51.518;9.864;2023-02-12T05:52:24;100848.81;;;5.66;90.19
20710;BME280;10516;51.518;9.864;2023-02-12T05:54:49;100846.69;;;5.54;91.31
20710;BME280;10516;51.518;9.864;2023-02-12T05:57:15;100857.78;;;5.65;90.27
20710;BME280;10516;51.518;9.864;2023-02-12T05:59:40;100854.81;;;5.52;91.92
20710;BME280;10516;51.518;9.864;2023-02-12T06:02:05;100858.78;;;5.56;91.57
20710;BME280;10516;51.518;9.864;2023-02-12T06:04:30;100865.03;;;5.71;90.34
20710;BME280;10516;51.518;9.864;2023-02-12T06:06:56;100861.06;;;5.59;90.40
20710;BME280;10516;51.518;9.864;2023-02-12T06:09:21;100864.06;;;5.56;90.62
20710;BME280;10516;51.518;9.864;2023-02-12T06:11:47;100858.75;;;5.64;90.47
20710;BME280;10516;51.518;9.864;2023-02-12T06:14:16;100861.06;;;5.59;90.58
20710;BME280;10516;51.518;9.864;2023-02-12T06:16:46;100866.72;;;5.56;90.07
20710;BME280;10516;51.518;9.864;2023-02-12T06:19:11;100865.22;;;5.62;90.18
20710;BME280;10516;51.518;9.864;2023-02-12T06:21:37;100870.69;;;5.60;90.57
20710;BME280;10516;51.518;9.864;2023-02-12T06:24:02;100870.84;;;5.59;90.65
20710;BME280;10516;51.518;9.864;2023-02-12T06:26:27;100876.31;;;5.65;89.80
20710;BME280;10516;51.518;9.864;2023-02-12T06:28:53;100870.84;;;5.51;90.24
20710;BME280;10516;51.518;9.864;2023-02-12T06:31:19;100874.00;;;5.54;90.32
20710;BME280;10516;51.518;9.864;2023-02-12T06:33:44;100876.31;;;5.57;90.59
20710;BME280;10516;51.518;9.864;2023-02-12T06:36:10;100884.91;;;5.59;90.26
20710;BME280;10516;51.518;9.864;2023-02-12T06:38:35;100882.59;;;5.56;91.18
20710;BME280;10516;51.518;9.864;2023-02-12T06:41:01;100876.63;;;5.62;89.76
20710;BME280;10516;51.518;9.864;2023-02-12T06:43:26;100881.28;;;5.52;90.14
20710;BME280;10516;51.518;9.864;2023-02-12T06:45:51;100884.25;;;5.57;90.95
20710;BME280;10516;51.518;9.864;2023-02-12T06:48:17;100890.03;;;5.53;89.99
20710;BME280;10516;51.518;9.864;2023-02-12T06:50:42;100882.25;;;5.59;90.61
20710;BME280;10516;51.518;9.864;2023-02-12T06:53:07;100896.84;;;5.63;90.30
20710;BME280;10516;51.518;9.864;2023-02-12T06:55:33;100904.94;;;5.54;91.06
20710;BME280;10516;51.518;9.864;2023-02-12T06:57:58;100905.94;;;5.69;90.22
20710;BME280;10516;51.518;9.864;2023-02-12T07:00:23;100906.44;;;5.80;89.02
20710;BME280;10516;51.518;9.864;2023-02-12T07:02:55;100906.44;;;5.80;89.48
20710;BME280;10516;51.518;9.864;2023-02-12T07:05:20;100905.13;;;5.76;89.81
20710;BME280;10516;51.518;9.864;2023-02-12T07:07:46;100912.91;;;5.70;89.04
20710;BME280;10516;51.518;9.864;2023-02-12T07:10:11;100911.72;;;5.64;89.80
20710;BME280;10516;51.518;9.864;2023-02-12T07:12:36;100916.88;;;5.74;89.05
20710;BME280;10516;51.518;9.864;2023-02-12T07:15:02;100918.88;;;5.72;90.51
20710;BME280;10516;51.518;9.864;2023-02-12T07:17:28;100915.38;;;5.71;89.04
20710;BME280;10516;51.518;9.864;2023-02-12T07:19:54;100921.34;;;5.73;90.06
20710;BME280;10516;51.518;9.864;2023-02-12T07:22:19;100921.00;;;5.76;90.38
20710;BME280;10516;51.518;9.864;2023-02-12T07:24:46;100932.59;;;5.67;89.86
20710;BME280;10516;51.518;9.864;2023-02-12T07:27:11;100927.63;;;5.64;90.22
20710;BME280;10516;51.518;9.864;2023-02-12T07:29:36;100924.66;;;5.67;90.23
20710;BME280;10516;51.518;9.864;2023-02-12T07:32:02;100936.41;;;5.73;89.58
20710;BME280;10516;51.518;9.864;2023-02-12T07:34:27;100935.41;;;5.66;89.78
20710;BME280;10516;51.518;9.864;2023-02-12T07:36:52;100932.59;;;5.67;90.41
20710;BME280;10516;51.518;9.864;2023-02-12T07:39:18;100933.44;;;5.68;90.15
20710;BME280;10516;51.518;9.864;2023-02-12T07:41:44;100943.00;;;5.77;90.84
20710;BME280;10516;51.518;9.864;2023-02-12T07:44:10;100948.16;;;5.70;91.05
20710;BME280;10516;51.518;9.864;2023-02-12T07:46:45;100946.84;;;5.66;90.79
20710;BME280;10516;51.518;9.864;2023-02-12T07:49:12;100945.84;;;5.67;90.46
20710;BME280;10516;51.518;9.864;2023-02-12T07:51:38;100945.50;;;5.62;91.30
20710;BME280;10516;51.518;9.864;2023-02-12T07:54:03;100946.00;;;5.66;92.42
20710;BME280;10516;51.518;9.864;2023-02-12T07:56:30;100953.28;;;5.80;91.47
20710;BME280;10516;51.518;9.864;2023-02-12T07:58:57;100951.13;;;5.75;90.21
20710;BME280;10516;51.518;9.864;2023-02-12T08:01:23;100948.50;;;5.75;91.58
20710;BME280;10516;51.518;9.864;2023-02-12T08:03:51;100940.06;;;5.72;91.58
20710;BME280;10516;51.518;9.864;2023-02-12T08:06:20;100948.66;;;5.74;91.37
20710;BME280;10516;51.518;9.864;2023-02-12T08:08:47;100939.53;;;5.68;92.48
20710;BME280;10516;51.518;9.864;2023-02-12T08:11:13;100941.72;;;5.81;90.60
20710;BME280;10516;51.518;9.864;2023-02-12T08:13:39;100945.34;;;5.72;91.46
20710;BME280;10516;51.518;9.864;2023-02-12T08:16:09;100950.66;;;5.72;91.02
20710;BME280;10516;51.518;9.864;2023-02-12T08:18:37;100942.38;;;5.91;90.16
20710;BME280;10516;51.518;9.864;2023-02-12T08:21:03;100951.00;;;5.85;92.53
20710;BME280;10516;51.518;9.864;2023-02-12T08:24:40;100942.84;;;6.19;92.21
20710;BME280;10516;51.518;9.864;2023-02-12T08:27:06;100947.75;;;6.38;91.00
20710;BME280;10516;51.518;9.864;2023-02-12T08:29:32;100946.13;;;6.37;91.34
20710;BME280;10516;51.518;9.864;2023-02-12T08:31:57;100948.50;;;6.16;91.49
20710;BME280;10516;51.518;9.864;2023-02-12T08:34:24;100953.16;;;6.14;92.67
20710;BME280;10516;51.518;9.864;2023-02-12T08:36:50;100953.16;;;6.14;93.94
20710;BME280;10516;51.518;9.864;2023-02-12T08:39:17;100960.78;;;6.00;92.50
20710;BME280;10516;51.518;9.864;2023-02-12T08:41:43;100959.75;;;6.10;93.70
20710;BME280;10516;51.518;9.864;2023-02-12T08:44:09;100962.41;;;6.01;94.32
20710;BME280;10516;51.518;9.864;2023-02-12T08:46:35;100960.44;;;6.03;94.49
20710;BME280;10516;51.518;9.864;2023-02-12T08:49:02;100965.72;;;6.03;94.37
20710;BME280;10516;51.518;9.864;2023-02-12T08:51:32;100958.94;;;6.09;93.25
20710;BME280;10516;51.518;9.864;2023-02-12T08:53:58;100964.06;;;6.11;93.83
20710;BME280;10516;51.518;9.864;2023-02-12T08:56:24;100971.84;;;6.12;92.98
20710;BME280;10516;51.518;9.864;2023-02-12T08:58:50;100965.72;;;6.12;94.13
20710;BME280;10516;51.518;9.864;2023-02-12T09:01:16;100969.38;;;6.11;93.61
20710;BME280;10516;51.518;9.864;2023-02-12T09:03:42;100966.41;;;6.14;93.69
20710;BME280;10516;51.518;9.864;2023-02-12T09:06:08;100972.34;;;6.16;94.23
20710;BME280;10516;51.518;9.864;2023-02-12T09:08:33;100981.78;;;6.10;94.51
20710;BME280;10516;51.518;9.864;2023-02-12T09:10:59;100987.59;;;6.14;93.42
20710;BME280;10516;51.518;9.864;2023-02-12T09:13:24;100984.78;;;6.15;94.61
20710;BME280;10516;51.518;9.864;2023-02-12T09:15:49;100985.94;;;6.13;94.06
20710;BME280;10516;51.518;9.864;2023-02-12T09:18:15;100980.31;;;6.16;93.88
20710;BME280;10516;51.518;9.864;2023-02-12T09:20:41;100978.66;;;6.15;93.91
20710;BME280;10516;51.518;9.864;2023-02-12T09:23:07;100985.63;;;6.16;94.28
20710;BME280;10516;51.518;9.864;2023-02-12T09:25:33;100994.06;;;6.03;96.87
20710;BME280;10516;51.518;9.864;2023-02-12T09:27:59;100991.56;;;6.18;94.48
20710;BME280;10516;51.518;9.864;2023-02-12T09:30:24;100992.72;;;6.23;94.16
20710;BME280;10516;51.518;9.864;2023-02-12T09:32:49;100995.34;;;6.31;93.58
20710;BME280;10516;51.518;9.864;2023-02-12T09:35:14;100995.50;;;6.38;93.09
20710;BME280;10516;51.518;9.864;2023-02-12T09:37:40;101004.78;;;6.34;93.19
20710;BME280;10516;51.518;9.864;2023-02-12T09:40:06;101003.66;;;6.28;93.46
20710;BME280;10516;51.518;9.864;2023-02-12T09:45:15;101002.66;;;6.37;92.97
20710;BME280;10516;51.518;9.864;2023-02-12T09:47:49;101008.09;;;6.36;93.00
20710;BME280;10516;51.518;9.864;2023-02-12T09:53:02;101009.75;;;6.45;92.81
20710;BME280;10516;51.518;9.864;2023-02-12T09:55:30;101010.78;;;6.28;94.26
20710;BME280;10516;51.518;9.864;2023-02-12T09:57:55;101005.44;;;6.36;93.34
20710;BME280;10516;51.518;9.864;2023-02-12T10:00:25;101015.41;;;6.42;93.03
20710;BME280;10516;51.518;9.864;2023-02-12T10:02:56;101012.44;;;6.29;93.99
20710;BME280;10516;51.518;9.864;2023-02-12T10:05:23;101008.97;;;6.28;93.24
20710;BME280;10516;51.518;9.864;2023-02-12T10:10:21;101017.09;;;6.27;93.48
20710;BME280;10516;51.518;9.864;2023-02-12T10:12:52;101018.72;;;6.36;93.92
20710;BME280;10516;51.518;9.864;2023-02-12T10:20:24;101024.66;;;6.54;92.82
20710;BME280;10516;51.518;9.864;2023-02-12T10:27:48;101016.66;;;6.62;92.49
20710;BME280;10516;51.518;9.864;2023-02-12T10:30:21;101013.22;;;6.61;92.75
20710;BME280;10516;51.518;9.864;2023-02-12T10:32:49;101015.53;;;6.56;92.89
20710;BME280;10516;51.518;9.864;2023-02-12T10:35:16;101008.72;;;6.70;92.40
20710;BME280;10516;51.518;9.864;2023-02-12T10:37:51;101015.03;;;6.61;92.74
20710;BME280;10516;51.518;9.864;2023-02-12T10:40:22;101013.00;;;6.79;92.81
20710;BME280;10516;51.518;9.864;2023-02-12T10:42:49;101014.56;;;6.57;92.46
20710;BME280;10516;51.518;9.864;2023-02-12T10:45:17;101014.00;;;6.70;92.84
20710;BME280;10516;51.518;9.864;2023-02-12T10:47:43;101012.19;;;6.70;93.14
20710;BME280;10516;51.518;9.864;2023-02-12T10:50:15;101014.38;;;6.59;93.20
20710;BME280;10516;51.518;9.864;2023-02-12T10:52:46;101014.53;;;6.65;92.70
20710;BME280;10516;51.518;9.864;2023-02-12T10:55:45;101020.81;;;6.72;92.60
20710;BME280;10516;51.518;9.864;2023-02-12T10:58:04;101010.66;;;6.76;92.75
20710;BME280;10516;51.518;9.864;2023-02-12T11:00:40;101018.31;;;6.79;92.72
20710;BME280;10516;51.518;9.864;2023-02-12T11:05:36;101011.56;;;7.61;90.81
20710;BME280;10516;51.518;9.864;2023-02-12T11:08:02;101014.97;;;8.37;87.83
20710;BME280;10516;51.518;9.864;2023-02-12T11:10:31;101007.44;;;8.26;87.03
20710;BME280;10516;51.518;9.864;2023-02-12T11:12:58;101008.75;;;8.59;87.64
20710;BME280;10516;51.518;9.864;2023-02-12T11:15:24;101013.75;;;8.25;87.29
20710;BME280;10516;51.518;9.864;2023-02-12T11:17:54;101009.94;;;9.15;85.26
20710;BME280;10516;51.518;9.864;2023-02-12T11:20:24;101011.22;;;9.19;84.17
20710;BME280;10516;51.518;9.864;2023-02-12T11:22:55;101008.84;;;9.10;84.78
20710;BME280;10516;51.518;9.864;2023-02-12T11:25:21;101008.41;;;9.06;84.35
20710;BME280;10516;51.518;9.864;2023-02-12T11:28:32;101002.28;;;9.41;83.29
20710;BME280;10516;51.518;9.864;2023-02-12T11:30:32;101003.22;;;9.04;84.21
20710;BME280;10516;51.518;9.864;2023-02-12T11:33:42;101005.94;;;9.40;82.06
20710;BME280;10516;51.518;9.864;2023-02-12T11:38:27;101003.53;;;10.30;79.91
20710;BME280;10516;51.518;9.864;2023-02-12T11:40:55;100997.66;;;10.41;79.06
20710;BME280;10516;51.518;9.864;2023-02-12T11:43:21;100989.66;;;10.41;79.11
20710;BME280;10516;51.518;9.864;2023-02-12T11:45:49;100996.13;;;10.25;79.46
20710;BME280;10516;51.518;9.864;2023-02-12T11:48:21;100990.97;;;10.24;80.26
20710;BME280;10516;51.518;9.864;2023-02-12T11:50:47;100995.22;;;9.97;80.74
20710;BME280;10516;51.518;9.864;2023-02-12T11:53:18;101001.69;;;9.46;81.15
20710;BME280;10516;51.518;9.864;2023-02-12T11:55:51;100995.47;;;9.81;82.32
20710;BME280;10516;51.518;9.864;2023-02-12T11:58:22;101005.59;;;9.64;83.54
20710;BME280;10516;51.518;9.864;2023-02-12T12:00:55;100998.13;;;10.51;80.61
20710;BME280;10516;51.518;9.864;2023-02-12T12:03:41;100998.22;;;10.64;79.20
20710;BME280;10516;51.518;9.864;2023-02-12T12:06:15;101001.38;;;10.74;78.47
20710;BME280;10516;51.518;9.864;2023-02-12T12:08:42;100997.47;;;10.70;78.23
20710;BME280;10516;51.518;9.864;2023-02-12T12:11:21;100980.72;;;10.27;79.66
20710;BME280;10516;51.518;9.864;2023-02-12T12:14:01;100990.00;;;9.47;80.14
20710;BME280;10516;51.518;9.864;2023-02-12T12:16:37;100982.72;;;9.20;82.42
20710;BME280;10516;51.518;9.864;2023-02-12T12:19:27;100990.94;;;9.03;82.78
20710;BME280;10516;51.518;9.864;2023-02-12T12:25:07;100984.34;;;8.70;84.47
20710;BME280;10516;51.518;9.864;2023-02-12T12:27:40;100987.81;;;8.56;84.54
20710;BME280;10516;51.518;9.864;2023-02-12T12:30:35;100986.38;;;8.54;84.89
20710;BME280;10516;51.518;9.864;2023-02-12T12:33:02;100986.09;;;8.49;84.58
20710;BME280;10516;51.518;9.864;2023-02-12T12:35:42;100982.69;;;8.40;84.45
20710;BME280;10516;51.518;9.864;2023-02-12T12:38:44;100978.50;;;8.23;85.37
20710;BME280;10516;51.518;9.864;2023-02-12T12:41:09;100969.50;;;8.24;84.89
20710;BME280;10516;51.518;9.864;2023-02-12T12:56:19;100973.47;;;7.91;86.11
20710;BME280;10516;51.518;9.864;2023-02-12T13:09:24;100963.81;;;7.75;87.02
20710;BME280;10516;51.518;9.864;2023-02-12T13:14:46;100962.22;;;7.43;88.04
20710;BME280;10516;51.518;9.864;2023-02-12T13:22:34;100958.19;;;7.70;86.87
20710;BME280;10516;51.518;9.864;2023-02-12T13:27:29;100958.63;;;7.82;86.75
20710;BME280;10516;51.518;9.864;2023-02-12T13:32:33;100954.94;;;7.83;86.66
20710;BME280;10516;51.518;9.864;2023-02-12T13:35:01;100953.00;;;7.77;87.21
20710;BME280;10516;51.518;9.864;2023-02-12T13:39:54;100957.19;;;7.71;86.52
20710;BME280;10516;51.518;9.864;2023-02-12T13:42:32;100955.84;;;7.75;86.06
20710;BME280;10516;51.518;9.864;2023-02-12T13:53:01;100943.09;;;7.48;87.38
20710;BME280;10516;51.518;9.864;2023-02-12T13:55:50;100938.53;;;7.56;87.34
20710;BME280;10516;51.518;9.864;2023-02-12T14:03:30;100937.66;;;7.64;86.98
20710;BME280;10516;51.518;9.864;2023-02-12T14:08:37;100933.09;;;7.73;86.29
20710;BME280;10516;51.518;9.864;2023-02-12T14:11:06;100928.53;;;7.58;86.49
20710;BME280;10516;51.518;9.864;2023-02-12T14:13:32;100931.41;;;7.57;87.31
20710;BME280;10516;51.518;9.864;2023-02-12T14:15:58;100931.13;;;7.67;86.33
20710;BME280;10516;51.518;9.864;2023-02-12T14:18:42;100933.88;;;7.58;86.57
20710;BME280;10516;51.518;9.864;2023-02-12T14:23:35;100935.97;;;7.40;87.36
20710;BME280;10516;51.518;9.864;2023-02-12T14:26:02;100931.88;;;7.38;89.15
20710;BME280;10516;51.518;9.864;2023-02-12T14:33:42;100933.75;;;7.75;86.90
20710;BME280;10516;51.518;9.864;2023-02-12T14:36:14;100940.97;;;7.66;87.29
20710;BME280;10516;51.518;9.864;2023-02-12T14:44:58;100939.47;;;7.64;87.22
20710;BME280;10516;51.518;9.864;2023-02-12T14:47:00;100935.75;;;7.73;86.63
20710;BME280;10516;51.518;9.864;2023-02-12T14:49:41;100937.06;;;7.31;89.01
20710;BME280;10516;51.518;9.864;2023-02-12T14:54:44;100933.25;;;7.03;89.85
20710;BME280;10516;51.518;9.864;2023-02-12T15:00:01;100936.94;;;7.70;87.41
20710;BME280;10516;51.518;9.864;2023-02-12T15:02:29;100941.44;;;7.84;86.24
20710;BME280;10516;51.518;9.864;2023-02-12T15:04:57;100938.78;;;7.84;86.00
20710;BME280;10516;51.518;9.864;2023-02-12T15:07:28;100941.94;;;7.88;85.33
20710;BME280;10516;51.518;9.864;2023-02-12T15:13:51;100943.88;;;7.94;85.69
20710;BME280;10516;51.518;9.864;2023-02-12T15:15:49;100945.09;;;7.69;85.62
20710;BME280;10516;51.518;9.864;2023-02-12T15:18:32;100939.94;;;7.67;85.53
20710;BME280;10516;51.518;9.864;2023-02-12T15:21:10;100945.94;;;7.46;87.64
20710;BME280;10516;51.518;9.864;2023-02-12T15:23:41;100942.25;;;7.70;85.74
20710;BME280;10516;51.518;9.864;2023-02-12T15:26:14;100944.72;;;7.72;86.14
20710;BME280;10516;51.518;9.864;2023-02-12T15:28:39;100946.38;;;7.73;85.98
20710;BME280;10516;51.518;9.864;2023-02-12T15:31:05;100941.06;;;7.73;85.74